Time;durP1;ratioP1;P1;durP2;ratioP2;P2;SDS_P1;SDS_P2;PMS_P1;PMS_P2;Temp;Humidity;BMP_temperature;BMP_pressure;BME280_temperature;BME280_humidity;BME280_pressure;Samples;Min_cycle;Max_cycle;Signal;HPM_P1;HPM_P2
2022/03/05 00:00:35;;;;;;;0.63;0.63;;;11.40;99.90;;;;;;5069278;28;20456;-63
2022/03/05 00:03:06;;;;;;;1.63;0.70;;;11.50;99.90;;;;;;5063863;28;20513;-63
2022/03/05 00:05:42;;;;;;;0.60;0.40;;;11.60;99.90;;;;;;5062541;28;20927;-63
2022/03/05 00:08:35;;;;;;;0.97;0.73;;;11.70;99.90;;;;;;5056265;28;20464;-63
2022/03/05 00:11:12;;;;;;;1.50;1.40;;;11.80;99.90;;;;;;5062074;28;20454;-63
2022/03/05 00:13:43;;;;;;;0.80;0.80;;;11.90;99.90;;;;;;5062589;28;21248;-63
2022/03/05 00:16:14;;;;;;;0.80;0.80;;;11.90;99.90;;;;;;5064350;28;20599;-63
2022/03/05 00:18:45;;;;;;;1.10;1.00;;;11.70;99.90;;;;;;5063089;28;20444;-63
2022/03/05 00:21:18;;;;;;;1.40;0.90;;;11.70;99.90;;;;;;5063446;28;20468;-63
2022/03/05 00:23:49;;;;;;;2.03;1.40;;;11.60;99.90;;;;;;5062821;28;20601;-63
2022/03/05 00:26:20;;;;;;;0.80;0.80;;;11.60;99.90;;;;;;5063827;28;20444;-63
2022/03/05 00:28:51;;;;;;;0.70;0.70;;;11.50;99.90;;;;;;5061288;28;20974;-63
2022/03/05 00:31:22;;;;;;;1.23;1.13;;;11.40;99.90;;;;;;5051550;28;20785;-64
2022/03/05 00:33:53;;;;;;;0.93;0.90;;;11.40;99.90;;;;;;5064350;28;20492;-63
2022/03/05 00:36:38;;;;;;;1.00;1.00;;;11.30;99.90;;;;;;5061501;28;20534;-64
2022/03/05 00:39:09;;;;;;;1.17;0.90;;;11.40;99.90;;;;;;5061949;28;20455;-64
2022/03/05 00:41:43;;;;;;;1.10;1.00;;;11.40;99.90;;;;;;5063263;28;20448;-65
2022/03/05 00:44:14;;;;;;;1.30;1.20;;;11.50;99.90;;;;;;5068733;28;20447;-63
2022/03/05 00:46:45;;;;;;;1.10;1.10;;;11.60;99.90;;;;;;5074891;28;20497;-60
2022/03/05 00:49:16;;;;;;;1.50;1.40;;;11.60;99.90;;;;;;5062411;28;20457;-63
2022/03/05 00:51:49;;;;;;;1.03;1.03;;;11.60;99.90;;;;;;5063854;28;20472;-64
2022/03/05 00:54:20;;;;;;;1.23;1.13;;;11.80;99.90;;;;;;5062969;28;20487;-64
2022/03/05 00:56:51;;;;;;;1.07;1.07;;;11.80;99.90;;;;;;5065589;28;20448;-63
2022/03/05 00:59:22;;;;;;;1.10;1.10;;;11.70;99.90;;;;;;5063123;28;20445;-65
2022/03/05 01:01:53;;;;;;;1.30;1.13;;;11.80;99.90;;;;;;5061767;28;21287;-64
2022/03/05 01:04:25;;;;;;;1.77;1.40;;;11.70;99.90;;;;;;5061491;28;20452;-65
2022/03/05 01:06:57;;;;;;;1.83;1.40;;;11.70;99.90;;;;;;5062931;28;20491;-65
2022/03/05 01:09:28;;;;;;;3.80;1.40;;;11.70;99.90;;;;;;5065330;28;20514;-64
2022/03/05 01:11:59;;;;;;;1.53;1.40;;;11.70;99.90;;;;;;5062176;28;20463;-64
2022/03/05 01:14:30;;;;;;;1.33;1.30;;;11.60;99.90;;;;;;5061264;28;20612;-66
2022/03/05 01:17:04;;;;;;;2.50;1.30;;;11.50;99.90;;;;;;5059035;28;20455;-65
2022/03/05 01:19:37;;;;;;;1.80;1.70;;;11.40;99.90;;;;;;5061680;28;20549;-66
2022/03/05 01:22:10;;;;;;;1.20;1.20;;;11.30;99.90;;;;;;5064030;28;21018;-63
2022/03/05 01:24:41;;;;;;;1.10;1.10;;;11.30;99.90;;;;;;5058553;28;20444;-65
2022/03/05 01:27:14;;;;;;;1.20;1.20;;;11.20;99.90;;;;;;5060838;28;20459;-65
2022/03/05 01:29:45;;;;;;;1.63;1.53;;;11.30;99.90;;;;;;5055801;28;20800;-65
2022/03/05 01:32:16;;;;;;;1.83;1.73;;;11.30;99.90;;;;;;5062653;28;20456;-65
2022/03/05 01:34:47;;;;;;;1.10;1.10;;;11.30;99.90;;;;;;5061714;28;20558;-65
2022/03/05 01:37:19;;;;;;;1.00;1.00;;;11.20;99.90;;;;;;5061785;28;20463;-68
2022/03/05 01:39:50;;;;;;;1.43;0.77;;;11.10;99.90;;;;;;5066851;28;20484;-66
2022/03/05 01:42:23;;;;;;;1.10;1.10;;;10.90;99.90;;;;;;5060342;28;20536;-66
2022/03/05 01:44:54;;;;;;;1.03;0.93;;;10.90;99.90;;;;;;5057904;28;20443;-66
2022/03/05 01:47:25;;;;;;;2.03;1.20;;;10.80;99.90;;;;;;5062025;28;20456;-67
2022/03/05 01:49:56;;;;;;;1.20;1.17;;;10.80;99.90;;;;;;5062349;28;20492;-66
2022/03/05 01:52:28;;;;;;;1.50;1.40;;;10.60;99.90;;;;;;5061391;28;20462;-67
2022/03/05 01:55:00;;;;;;;1.50;1.40;;;10.40;99.90;;;;;;5061606;28;20901;-66
2022/03/05 01:57:30;;;;;;;1.60;1.50;;;10.40;99.90;;;;;;5061575;28;20516;-72
2022/03/05 02:00:02;;;;;;;2.33;1.20;;;10.30;99.90;;;;;;5063287;28;20527;-66
2022/03/05 02:02:33;;;;;;;2.13;1.40;;;10.20;99.90;;;;;;5062256;28;20455;-67
2022/03/05 02:05:09;;;;;;;2.50;1.63;;;10.10;99.90;;;;;;5062042;28;20522;-66
2022/03/05 02:07:41;;;;;;;1.47;1.10;;;10.10;99.90;;;;;;5063739;28;20531;-66
2022/03/05 02:10:13;;;;;;;2.20;1.13;;;10.00;99.90;;;;;;5070465;28;20456;-65
2022/03/05 02:12:44;;;;;;;1.37;1.27;;;10.00;99.90;;;;;;5065401;28;20453;-66
2022/03/05 02:15:15;;;;;;;2.15;2.05;;;9.90;99.90;;;;;;5065038;28;20498;-67
2022/03/05 02:17:47;;;;;;;2.53;2.03;;;9.80;99.90;;;;;;5066418;28;20348;-71
2022/03/05 02:20:18;;;;;;;2.40;1.90;;;9.80;99.90;;;;;;5066028;28;20524;-68
2022/03/05 02:22:50;;;;;;;2.40;1.70;;;9.70;99.90;;;;;;5065159;28;20539;-69
2022/03/05 02:25:21;;;;;;;1.70;1.60;;;9.70;99.90;;;;;;5065793;28;20873;-73
2022/03/05 02:27:53;;;;;;;1.95;1.77;;;9.70;99.90;;;;;;5073426;28;20591;-65
2022/03/05 02:30:24;;;;;;;2.90;2.60;;;9.60;99.90;;;;;;5067123;28;20190;-65
2022/03/05 02:32:55;;;;;;;1.70;1.60;;;9.60;99.90;;;;;;5065979;28;20444;-65
2022/03/05 02:35:26;;;;;;;2.72;1.85;;;9.50;99.90;;;;;;5065714;28;20484;-65
2022/03/05 02:38:01;;;;;;;2.38;2.00;;;9.50;99.90;;;;;;5068204;28;20561;-65
2022/03/05 02:40:31;;;;;;;3.00;2.10;;;9.40;99.90;;;;;;5066331;28;20201;-66
2022/03/05 02:43:03;;;;;;;3.38;1.80;;;9.30;99.90;;;;;;5065038;28;20444;-66
2022/03/05 02:45:35;;;;;;;1.70;1.60;;;9.30;99.90;;;;;;5066183;28;20207;-67
2022/03/05 02:48:08;;;;;;;2.05;1.95;;;9.20;99.90;;;;;;5066134;28;20460;-65
2022/03/05 02:50:49;;;;;;;1.80;1.70;;;9.30;99.90;;;;;;5067406;28;20212;-66
2022/03/05 02:53:22;;;;;;;1.98;1.77;;;9.20;99.90;;;;;;5064214;28;20456;-64
2022/03/05 02:55:53;;;;;;;2.17;1.52;;;9.10;99.90;;;;;;5066273;28;20285;-63
2022/03/05 02:58:24;;;;;;;2.00;1.90;;;9.10;99.90;;;;;;5064616;28;20206;-64
2022/03/05 03:00:55;;;;;;;1.90;1.80;;;8.90;99.90;;;;;;5068135;28;20191;-64
2022/03/05 03:03:26;;;;;;;2.00;1.90;;;8.80;99.90;;;;;;5065285;28;20445;-63
2022/03/05 03:05:57;;;;;;;2.15;1.95;;;8.80;99.90;;;;;;5066346;28;20305;-63
2022/03/05 03:08:30;;;;;;;2.15;1.95;;;8.70;99.90;;;;;;5063647;28;20225;-62
2022/03/05 03:11:02;;;;;;;2.15;1.95;;;8.80;99.90;;;;;;5066232;28;20202;-62
2022/03/05 03:13:37;;;;;;;2.08;1.92;;;8.70;99.90;;;;;;5066997;28;20229;-62
2022/03/05 03:16:09;;;;;;;3.63;2.50;;;8.70;99.90;;;;;;5051258;28;20227;-63
2022/03/05 03:18:40;;;;;;;2.80;2.60;;;8.60;99.90;;;;;;5051811;28;20194;-63
2022/03/05 03:21:11;;;;;;;3.85;3.38;;;8.60;99.90;;;;;;5061393;28;20711;-64
2022/03/05 03:23:44;;;;;;;3.05;2.75;;;8.60;99.90;;;;;;5059296;28;20210;-64
2022/03/05 03:26:15;;;;;;;2.53;2.30;;;8.60;99.90;;;;;;5057106;28;20211;-64
2022/03/05 03:28:45;;;;;;;2.55;2.35;;;8.50;99.90;;;;;;5060526;28;20284;-65
2022/03/05 03:31:17;;;;;;;2.85;2.65;;;8.50;99.90;;;;;;5073733;28;20190;-65
2022/03/05 03:33:48;;;;;;;3.70;3.40;;;8.50;99.90;;;;;;5071996;28;20208;-65
2022/03/05 03:36:19;;;;;;;2.92;2.70;;;8.40;99.90;;;;;;5063558;28;20237;-66
2022/03/05 03:38:51;;;;;;;3.55;2.85;;;8.40;99.90;;;;;;5063183;28;20284;-65
2022/03/05 03:41:23;;;;;;;5.53;3.05;;;8.40;99.90;;;;;;5060874;28;20206;-64
2022/03/05 03:43:53;;;;;;;3.00;2.67;;;8.40;99.90;;;;;;5057449;28;20597;-65
2022/03/05 03:46:25;;;;;;;2.80;2.60;;;8.30;99.90;;;;;;5067939;28;20190;-65
2022/03/05 03:48:59;;;;;;;3.10;2.80;;;8.20;99.90;;;;;;5062988;28;20228;-66
2022/03/05 03:51:30;;;;;;;2.60;2.40;;;8.10;99.90;;;;;;5064543;28;20204;-66
2022/03/05 03:54:03;;;;;;;2.97;2.60;;;8.10;99.90;;;;;;5064097;28;20202;-66
2022/03/05 03:56:34;;;;;;;2.40;2.30;;;8.00;99.90;;;;;;5065828;28;20255;-70
2022/03/05 03:59:05;;;;;;;2.65;2.45;;;8.00;99.90;;;;;;5063518;28;20273;-67
2022/03/05 04:01:36;;;;;;;3.20;2.40;;;8.00;99.90;;;;;;5079719;28;20197;-66
2022/03/05 04:04:08;;;;;;;2.90;2.70;;;7.90;99.90;;;;;;5064280;28;20198;-67
2022/03/05 04:09:46;;;;;;;3.35;3.05;;;7.90;99.90;;;;;;5065461;28;20248;-67
2022/03/05 04:12:17;;;;;;;3.05;2.85;;;7.90;99.90;;;;;;5063376;28;20230;-67
2022/03/05 04:14:48;;;;;;;2.50;2.40;;;7.90;99.90;;;;;;5065348;28;20297;-67
2022/03/05 04:17:18;;;;;;;3.15;2.88;;;7.90;99.90;;;;;;5060617;28;20733;-67
2022/03/05 04:19:49;;;;;;;5.10;4.70;;;7.80;99.90;;;;;;5064622;28;20200;-67
2022/03/05 04:22:20;;;;;;;3.30;3.00;;;7.80;99.90;;;;;;5064052;28;20261;-67
2022/03/05 04:24:53;;;;;;;2.83;2.60;;;7.80;99.90;;;;;;5063590;28;20197;-66
2022/03/05 04:27:24;;;;;;;3.53;3.22;;;7.70;99.90;;;;;;5062587;28;20308;-66
2022/03/05 04:29:58;;;;;;;3.75;3.45;;;7.70;99.90;;;;;;5060683;28;20289;-67
2022/03/05 04:32:29;;;;;;;3.50;3.20;;;7.70;99.90;;;;;;5063297;28;20221;-67
2022/03/05 04:35:00;;;;;;;3.17;2.85;;;7.70;99.90;;;;;;5062930;28;20185;-67
2022/03/05 04:37:31;;;;;;;2.80;2.60;;;7.70;99.90;;;;;;5062724;28;20304;-68
2022/03/05 04:40:04;;;;;;;3.30;3.10;;;7.80;99.90;;;;;;5063506;28;20218;-67
2022/03/05 04:42:35;;;;;;;2.70;2.50;;;7.70;99.90;;;;;;5062463;28;20212;-67
2022/03/05 04:45:08;;;;;;;3.20;2.90;;;7.70;99.90;;;;;;5063158;28;20198;-67
2022/03/05 04:47:40;;;;;;;3.00;2.80;;;7.60;99.90;;;;;;5066944;28;20194;-66
2022/03/05 04:50:11;;;;;;;4.32;2.63;;;7.60;99.90;;;;;;5063666;28;20186;-66
2022/03/05 04:52:42;;;;;;;3.10;2.90;;;7.50;99.90;;;;;;5068633;28;20651;-66
2022/03/05 04:55:15;;;;;;;2.85;2.65;;;7.50;99.90;;;;;;5067456;28;20206;-66
2022/03/05 04:57:46;;;;;;;2.90;2.70;;;7.50;99.90;;;;;;5061018;28;20202;-67
2022/03/05 05:00:20;;;;;;;3.08;2.85;;;7.50;99.90;;;;;;5072943;28;20193;-66
2022/03/05 05:02:54;;;;;;;3.10;2.80;;;7.50;99.90;;;;;;5065473;28;20643;-67
2022/03/05 05:05:29;;;;;;;2.72;2.53;;;7.40;99.90;;;;;;5050068;28;20259;-67
2022/03/05 05:08:00;;;;;;;3.25;3.05;;;7.40;99.90;;;;;;5060445;28;20594;-67
2022/03/05 05:10:35;;;;;;;2.42;2.28;;;7.40;99.90;;;;;;5063476;28;20225;-67
2022/03/05 05:13:07;;;;;;;2.60;2.40;;;7.40;99.90;;;;;;5062516;28;20208;-65
2022/03/05 05:15:39;;;;;;;2.70;2.50;;;7.40;99.90;;;;;;5063204;28;20226;-67
2022/03/05 05:18:18;;;;;;;3.78;2.58;;;7.40;99.90;;;;;;5061708;28;20209;-67
2022/03/05 05:20:52;;;;;;;2.30;2.20;;;7.30;99.90;;;;;;5059725;28;20190;-67
2022/03/05 05:23:23;;;;;;;2.40;2.30;;;7.20;99.90;;;;;;5059047;28;20206;-66
2022/03/05 05:25:56;;;;;;;2.97;2.30;;;7.30;99.90;;;;;;5072359;28;20209;-67
2022/03/05 05:28:27;;;;;;;2.90;2.70;;;7.30;99.90;;;;;;5061603;28;20208;-67
2022/03/05 05:30:58;;;;;;;2.10;1.92;;;7.30;99.90;;;;;;5070383;28;20243;-67
2022/03/05 05:33:29;;;;;;;4.88;2.88;;;7.20;99.90;;;;;;5056260;28;20261;-67
2022/03/05 05:36:00;;;;;;;2.60;2.50;;;7.20;99.90;;;;;;5063284;28;20210;-68
2022/03/05 05:38:31;;;;;;;3.65;2.30;;;7.20;99.90;;;;;;5066793;28;20202;-67
2022/03/05 05:41:04;;;;;;;3.80;2.47;;;7.20;99.90;;;;;;5066395;28;20979;-67
2022/03/05 05:43:35;;;;;;;2.70;2.30;;;7.20;99.90;;;;;;5051515;28;20206;-67
2022/03/05 05:46:06;;;;;;;3.10;2.50;;;7.10;99.90;;;;;;5066169;28;20206;-67
2022/03/05 05:48:56;;;;;;;2.15;2.05;;;7.10;99.90;;;;;;5061581;28;20194;-67
2022/03/05 05:51:28;;;;;;;3.90;3.60;;;7.10;99.90;;;;;;5063695;28;20244;-67
2022/03/05 05:54:00;;;;;;;5.55;2.50;;;7.10;99.90;;;;;;5062767;28;20200;-67
2022/03/05 05:56:32;;;;;;;2.53;2.33;;;7.10;99.90;;;;;;5062615;28;20257;-67
2022/03/05 05:59:03;;;;;;;2.13;2.03;;;7.10;99.90;;;;;;5061180;28;20214;-66
2022/03/05 06:01:34;;;;;;;2.58;2.35;;;7.10;99.90;;;;;;5062054;28;20245;-67
2022/03/05 06:04:06;;;;;;;2.20;2.10;;;7.10;99.90;;;;;;5063033;28;20194;-67
2022/03/05 06:06:37;;;;;;;4.78;2.40;;;7.00;99.90;;;;;;5051255;28;20516;-67
2022/03/05 06:09:08;;;;;;;2.97;2.42;;;7.00;99.90;;;;;;5061068;28;20221;-67
2022/03/05 06:11:41;;;;;;;2.13;1.88;;;7.00;99.90;;;;;;5062544;28;20209;-67
2022/03/05 06:14:11;;;;;;;2.40;2.20;;;7.00;99.90;;;;;;5063280;28;20281;-66
2022/03/05 06:16:42;;;;;;;2.67;2.35;;;7.00;99.90;;;;;;5065347;28;20221;-67
2022/03/05 06:19:13;;;;;;;2.47;2.30;;;7.00;99.90;;;;;;5068897;28;20209;-66
2022/03/05 06:21:44;;;;;;;2.55;2.35;;;7.00;99.90;;;;;;5067114;28;20194;-64
2022/03/05 06:24:18;;;;;;;3.67;2.50;;;6.90;99.90;;;;;;5060053;28;20237;-64
2022/03/05 06:26:51;;;;;;;2.92;2.72;;;6.90;99.90;;;;;;5064745;28;20233;-67
2022/03/05 06:29:22;;;;;;;2.30;2.20;;;6.90;99.90;;;;;;5061423;28;20289;-65
2022/03/05 06:31:54;;;;;;;2.67;2.47;;;6.90;99.90;;;;;;5062440;28;20202;-67
2022/03/05 06:34:28;;;;;;;2.90;2.50;;;6.90;99.90;;;;;;5046438;28;20230;-68
2022/03/05 06:37:00;;;;;;;3.20;2.20;;;6.80;99.90;;;;;;5062353;28;20251;-67
2022/03/05 06:39:32;;;;;;;3.15;2.95;;;6.80;99.90;;;;;;5071777;28;20204;-67
2022/03/05 06:42:05;;;;;;;2.70;2.50;;;6.90;99.90;;;;;;5076843;28;20564;-67
2022/03/05 06:44:36;;;;;;;2.42;2.22;;;6.80;99.90;;;;;;5062935;28;20204;-68
2022/03/05 06:47:08;;;;;;;2.60;2.40;;;6.80;99.90;;;;;;5062718;28;20201;-67
2022/03/05 06:49:39;;;;;;;2.53;2.35;;;6.80;99.90;;;;;;5062145;28;20209;-67
2022/03/05 06:52:10;;;;;;;2.30;2.10;;;6.70;99.90;;;;;;5075209;28;20203;-64
2022/03/05 06:54:42;;;;;;;2.95;2.75;;;6.70;99.90;;;;;;5074302;28;20213;-67
2022/03/05 06:57:14;;;;;;;2.90;2.70;;;6.70;99.90;;;;;;5065914;28;20552;-67
2022/03/05 06:59:45;;;;;;;2.92;2.63;;;6.70;99.90;;;;;;5065891;28;20202;-67
2022/03/05 07:02:16;;;;;;;2.80;2.60;;;6.70;99.90;;;;;;5056562;28;20237;-67
2022/03/05 07:04:48;;;;;;;5.88;3.05;;;6.70;99.90;;;;;;5066345;28;20194;-66
2022/03/05 07:07:19;;;;;;;3.05;2.75;;;6.60;99.90;;;;;;5072901;28;20199;-67
2022/03/05 07:09:50;;;;;;;3.45;2.60;;;6.60;99.90;;;;;;5077793;28;20261;-67
2022/03/05 07:12:24;;;;;;;3.38;3.08;;;6.60;99.90;;;;;;5069290;28;20215;-66
2022/03/05 07:15:03;;;;;;;2.88;2.55;;;6.50;99.90;;;;;;5065744;28;20217;-66
2022/03/05 07:17:34;;;;;;;3.42;2.95;;;6.50;99.90;;;;;;5065695;28;20310;-66
2022/03/05 07:20:07;;;;;;;2.63;2.42;;;6.50;99.90;;;;;;5068976;28;20582;-67
2022/03/05 07:22:38;;;;;;;2.90;2.25;;;6.50;99.90;;;;;;5067842;28;20186;-66
2022/03/05 07:25:10;;;;;;;3.30;3.00;;;6.40;99.90;;;;;;5065104;28;20276;-66
2022/03/05 07:27:43;;;;;;;3.25;2.95;;;6.40;99.90;;;;;;5065778;28;20202;-67
2022/03/05 07:30:14;;;;;;;3.90;2.72;;;6.40;99.90;;;;;;5064334;28;20202;-66
2022/03/05 07:32:46;;;;;;;4.70;2.97;;;6.40;99.90;;;;;;5064954;28;20202;-67
2022/03/05 07:35:17;;;;;;;2.78;2.58;;;6.40;99.90;;;;;;5064963;28;20197;-66
2022/03/05 07:37:48;;;;;;;2.97;2.75;;;6.40;99.90;;;;;;5055549;28;20317;-67
2022/03/05 07:40:20;;;;;;;3.55;2.72;;;6.40;99.90;;;;;;5063548;28;20206;-66
2022/03/05 07:42:53;;;;;;;3.25;2.95;;;6.40;99.90;;;;;;5076398;28;20205;-66
2022/03/05 07:45:24;;;;;;;3.10;2.83;;;6.40;99.90;;;;;;5065247;28;20755;-67
2022/03/05 07:47:56;;;;;;;3.22;2.70;;;6.40;99.90;;;;;;5068181;28;20296;-66
2022/03/05 07:50:27;;;;;;;3.53;2.70;;;6.30;99.90;;;;;;5070343;28;20270;-66
2022/03/05 07:53:00;;;;;;;2.95;2.75;;;6.30;99.90;;;;;;5066335;28;20198;-66
2022/03/05 07:55:31;;;;;;;2.85;2.65;;;6.30;99.90;;;;;;5066558;28;20336;-66
2022/03/05 07:58:04;;;;;;;3.90;3.05;;;6.30;99.90;;;;;;5064784;28;20292;-66
2022/03/05 08:00:35;;;;;;;3.03;2.83;;;6.30;99.90;;;;;;5066645;28;20698;-67
2022/03/05 08:03:06;;;;;;;4.13;3.15;;;6.30;99.90;;;;;;5072562;28;20198;-66
2022/03/05 08:05:37;;;;;;;3.50;3.20;;;6.20;99.90;;;;;;5069619;28;20199;-66
2022/03/05 08:08:08;;;;;;;2.95;2.70;;;6.30;99.90;;;;;;5069590;28;20598;-66
2022/03/05 08:10:39;;;;;;;3.08;2.78;;;6.30;99.90;;;;;;5057780;28;20257;-66
2022/03/05 08:13:12;;;;;;;3.15;2.95;;;6.20;99.90;;;;;;5063424;28;20235;-67
2022/03/05 08:15:46;;;;;;;3.22;2.90;;;6.20;99.90;;;;;;5064287;28;20281;-66
2022/03/05 08:18:17;;;;;;;2.88;2.67;;;6.10;99.90;;;;;;5064012;28;20280;-67
2022/03/05 08:20:48;;;;;;;3.50;3.20;;;6.10;99.90;;;;;;5066116;28;20278;-66
2022/03/05 08:23:19;;;;;;;5.50;3.17;;;6.20;99.90;;;;;;5074127;28;20221;-66
2022/03/05 08:25:50;;;;;;;3.05;2.70;;;6.20;99.90;;;;;;5062717;28;20198;-66
2022/03/05 08:28:23;;;;;;;3.22;2.95;;;6.10;99.90;;;;;;5065419;28;20216;-66
2022/03/05 08:30:54;;;;;;;3.10;2.80;;;6.10;99.90;;;;;;5064250;28;20283;-67
2022/03/05 08:33:29;;;;;;;3.35;3.05;;;6.10;99.90;;;;;;5063946;28;20288;-66
2022/03/05 08:36:00;;;;;;;3.08;2.80;;;6.10;99.90;;;;;;5063995;28;20190;-66
2022/03/05 08:38:34;;;;;;;3.47;3.00;;;6.00;99.90;;;;;;5063349;28;20317;-66
2022/03/05 08:41:06;;;;;;;3.42;3.13;;;6.00;99.90;;;;;;5063990;28;20198;-66
2022/03/05 08:43:39;;;;;;;3.83;2.90;;;6.00;99.90;;;;;;5074457;28;20288;-66
2022/03/05 08:46:10;;;;;;;2.80;2.60;;;6.00;99.90;;;;;;5068356;28;20212;-66
2022/03/05 08:48:44;;;;;;;2.83;2.63;;;6.00;99.90;;;;;;5073292;28;20712;-66
2022/03/05 08:51:19;;;;;;;3.25;2.95;;;6.00;99.90;;;;;;5077170;28;20204;-66
2022/03/05 08:53:50;;;;;;;2.83;2.63;;;6.00;99.90;;;;;;5071330;28;20190;-66
2022/03/05 08:56:21;;;;;;;3.05;2.85;;;5.90;99.90;;;;;;5064634;28;20202;-66
2022/03/05 08:58:54;;;;;;;3.15;2.70;;;5.90;99.90;;;;;;5064326;28;20253;-66
2022/03/05 09:01:30;;;;;;;3.33;3.00;;;5.90;99.90;;;;;;5068095;28;20205;-67
2022/03/05 09:04:02;;;;;;;3.10;2.90;;;5.80;99.90;;;;;;5068734;28;20284;-67
2022/03/05 09:06:33;;;;;;;3.15;2.92;;;5.70;99.90;;;;;;5063167;28;20232;-66
2022/03/05 09:09:04;;;;;;;3.78;3.35;;;5.60;99.90;;;;;;5061120;28;20277;-66
2022/03/05 09:11:37;;;;;;;2.70;2.50;;;5.50;99.90;;;;;;5072254;28;20221;-66
2022/03/05 09:14:10;;;;;;;3.50;3.20;;;5.40;99.90;;;;;;5064479;28;20206;-66
2022/03/05 09:16:42;;;;;;;4.07;3.28;;;5.40;99.90;;;;;;5063022;28;20210;-66
2022/03/05 09:19:13;;;;;;;3.30;3.00;;;5.30;99.90;;;;;;5062507;28;20225;-66
2022/03/05 09:21:44;;;;;;;3.78;3.47;;;5.20;99.90;;;;;;5063366;28;20209;-66
2022/03/05 09:24:15;;;;;;;3.35;3.00;;;5.20;99.90;;;;;;5063539;28;20190;-66
2022/03/05 09:26:46;;;;;;;3.20;3.00;;;5.10;99.90;;;;;;5072538;28;20206;-66
2022/03/05 09:29:19;;;;;;;3.42;3.13;;;5.10;99.90;;;;;;5071692;28;20206;-66
2022/03/05 09:31:50;;;;;;;3.72;3.42;;;5.00;99.90;;;;;;5066283;28;20265;-67
2022/03/05 09:34:21;;;;;;;3.47;3.00;;;5.00;99.90;;;;;;5067255;28;20206;-66
2022/03/05 09:36:52;;;;;;;3.88;3.58;;;4.90;99.90;;;;;;5062538;28;20202;-66
2022/03/05 09:39:23;;;;;;;3.33;3.03;;;4.80;99.90;;;;;;5061925;28;20228;-66
2022/03/05 09:41:55;;;;;;;5.03;3.45;;;4.80;99.90;;;;;;5062709;28;20285;-65
2022/03/05 09:44:28;;;;;;;3.40;3.10;;;4.70;99.90;;;;;;5070428;28;20205;-65
2022/03/05 09:47:01;;;;;;;5.03;3.38;;;4.70;99.90;;;;;;5068673;28;20242;-66
2022/03/05 09:49:32;;;;;;;4.30;3.90;;;4.70;99.90;;;;;;5063455;28;20576;-66
2022/03/05 09:52:03;;;;;;;3.75;3.45;;;4.60;99.90;;;;;;5068509;28;20205;-66
2022/03/05 09:54:34;;;;;;;4.45;3.92;;;4.60;99.90;;;;;;5064064;28;20190;-66
2022/03/05 09:57:10;;;;;;;4.00;3.70;;;4.60;99.90;;;;;;5070351;28;20202;-66
2022/03/05 09:59:43;;;;;;;3.95;3.65;;;4.50;99.90;;;;;;5062275;28;20225;-66
2022/03/05 10:02:15;;;;;;;3.63;3.05;;;4.50;99.90;;;;;;5060019;28;20194;-66
2022/03/05 10:04:46;;;;;;;4.63;3.85;;;4.50;99.90;;;;;;5062758;28;20684;-66
2022/03/05 10:07:18;;;;;;;6.00;3.95;;;4.50;99.90;;;;;;5062989;28;20192;-66
2022/03/05 10:09:50;;;;;;;6.95;4.63;;;4.50;99.90;;;;;;5065918;28;20214;-66
2022/03/05 10:12:31;;;;;;;5.93;4.97;;;4.50;99.90;;;;;;5065793;28;20551;-65
2022/03/05 10:15:09;;;;;;;3.97;3.55;;;4.50;99.90;;;;;;5062524;28;20236;-65
2022/03/05 10:17:51;;;;;;;4.97;4.13;;;4.40;99.90;;;;;;5062944;28;20206;-66
2022/03/05 10:20:23;;;;;;;4.80;4.15;;;4.40;99.90;;;;;;5065231;28;20225;-66
2022/03/05 10:23:12;;;;;;;6.00;4.90;;;4.30;99.90;;;;;;5061622;28;20269;-66
2022/03/05 10:25:44;;;;;;;4.57;4.18;;;4.30;99.90;;;;;;5072389;28;20196;-67
2022/03/05 10:28:19;;;;;;;5.68;4.80;;;4.30;99.90;;;;;;5061623;28;20201;-66
2022/03/05 10:30:53;;;;;;;8.05;5.05;;;4.30;99.90;;;;;;5075816;28;20205;-64
2022/03/05 10:33:31;;;;;;;5.13;4.72;;;4.30;99.90;;;;;;5078874;28;20276;-65
2022/03/05 10:36:04;;;;;;;5.53;4.55;;;4.30;99.90;;;;;;5072087;28;20217;-64
2022/03/05 10:38:49;;;;;;;5.25;4.13;;;4.30;99.90;;;;;;5070522;28;20284;-64
2022/03/05 10:41:23;;;;;;;5.25;4.28;;;4.30;99.90;;;;;;5080076;28;20214;-65
2022/03/05 10:44:10;;;;;;;6.32;4.78;;;4.10;99.90;;;;;;5065534;28;20265;-64
2022/03/05 10:46:47;;;;;;;4.88;4.30;;;4.10;99.90;;;;;;5067550;28;20732;-65
2022/03/05 10:49:19;;;;;;;4.78;4.35;;;4.10;99.90;;;;;;5051826;28;20216;-64
2022/03/05 10:51:51;;;;;;;4.72;4.32;;;4.10;99.90;;;;;;5065810;28;20198;-64
2022/03/05 10:54:29;;;;;;;5.60;5.10;;;4.00;99.90;;;;;;5065700;28;20297;-64
2022/03/05 10:57:07;;;;;;;4.97;4.57;;;4.00;99.90;;;;;;5071474;28;20260;-64
2022/03/05 10:59:40;;;;;;;5.68;4.20;;;4.00;99.90;;;;;;5065886;28;20229;-65
2022/03/05 11:02:18;;;;;;;4.97;4.47;;;3.90;99.90;;;;;;5064405;28;20194;-65
2022/03/05 11:04:50;;;;;;;4.60;4.15;;;3.90;99.90;;;;;;5072964;28;20338;-64
2022/03/05 11:07:23;;;;;;;4.65;4.25;;;3.80;99.90;;;;;;5073365;28;20209;-64
2022/03/05 11:09:56;;;;;;;5.30;4.90;;;3.80;99.90;;;;;;5067068;28;20224;-64
2022/03/05 11:12:28;;;;;;;4.40;4.10;;;3.70;99.90;;;;;;5064382;28;20212;-65
2022/03/05 11:14:59;;;;;;;4.80;4.40;;;3.70;99.90;;;;;;5065838;28;20241;-65
2022/03/05 11:17:31;;;;;;;5.10;4.57;;;3.70;99.90;;;;;;5065633;28;20197;-65
2022/03/05 11:20:03;;;;;;;5.90;4.50;;;3.70;99.90;;;;;;5062051;28;20225;-64
2022/03/05 11:22:35;;;;;;;4.63;4.30;;;3.70;99.90;;;;;;5067499;28;20271;-64
2022/03/05 11:25:07;;;;;;;5.60;5.10;;;3.70;99.90;;;;;;5073082;28;20224;-64
2022/03/05 11:27:39;;;;;;;4.80;4.40;;;3.70;99.90;;;;;;5066336;28;20319;-65
2022/03/05 11:30:11;;;;;;;6.15;5.60;;;3.60;99.90;;;;;;5061687;28;20194;-64
2022/03/05 11:32:44;;;;;;;4.90;4.45;;;3.50;99.90;;;;;;5065759;28;20355;-65
2022/03/05 11:35:23;;;;;;;5.05;4.55;;;3.50;99.90;;;;;;5073646;28;20323;-64
2022/03/05 11:37:55;;;;;;;4.93;4.45;;;3.40;99.90;;;;;;5065184;28;20188;-64
2022/03/05 11:40:38;;;;;;;5.03;4.63;;;3.40;99.90;;;;;;5065785;28;20320;-65
2022/03/05 11:43:20;;;;;;;4.72;4.32;;;3.40;99.90;;;;;;5064361;28;20222;-64
2022/03/05 11:46:00;;;;;;;5.45;4.95;;;3.40;99.90;;;;;;5065791;28;20198;-64
2022/03/05 11:48:34;;;;;;;5.60;5.10;;;3.30;99.90;;;;;;5066037;28;20209;-64
2022/03/05 11:51:12;;;;;;;5.00;4.43;;;3.40;99.90;;;;;;5072394;28;20208;-65
2022/03/05 11:53:44;;;;;;;7.10;6.05;;;3.40;99.90;;;;;;5064781;28;20200;-64
2022/03/05 11:56:26;;;;;;;6.35;5.25;;;3.40;99.90;;;;;;5071573;28;20198;-64
2022/03/05 11:58:57;;;;;;;6.20;5.70;;;3.40;99.90;;;;;;5068332;28;20257;-64
2022/03/05 12:01:42;;;;;;;6.03;5.53;;;3.40;99.90;;;;;;5063593;28;20233;-65
2022/03/05 12:04:35;;;;;;;8.00;6.55;;;3.30;99.90;;;;;;5063884;28;20202;-64
2022/03/05 12:07:13;;;;;;;6.50;5.80;;;3.20;99.90;;;;;;5055279;28;20225;-64
2022/03/05 12:09:45;;;;;;;7.10;6.40;;;3.20;99.90;;;;;;5064502;28;20201;-64
2022/03/05 12:12:23;;;;;;;7.93;5.65;;;3.10;99.90;;;;;;5047297;28;20308;-65
2022/03/05 12:15:15;;;;;;;8.68;6.18;;;3.10;99.90;;;;;;5069366;28;20356;-64
2022/03/05 12:17:52;;;;;;;6.60;5.97;;;3.00;99.90;;;;;;5069225;28;20187;-64
2022/03/05 12:20:27;;;;;;;8.73;5.75;;;3.00;99.90;;;;;;5064449;28;20225;-64
2022/03/05 12:23:01;;;;;;;7.63;6.30;;;2.90;99.90;;;;;;5064251;28;20202;-64
2022/03/05 12:25:33;;;;;;;8.05;5.75;;;2.90;99.90;;;;;;5064303;28;20212;-64
2022/03/05 12:28:05;;;;;;;6.70;6.00;;;2.90;99.90;;;;;;5068334;28;20292;-63
2022/03/05 12:30:37;;;;;;;7.05;6.35;;;2.80;99.90;;;;;;5062545;28;21056;-64
2022/03/05 12:33:11;;;;;;;8.52;7.07;;;2.80;99.90;;;;;;5065663;28;20194;-64
2022/03/05 12:35:45;;;;;;;9.25;6.82;;;2.80;99.90;;;;;;5069509;28;20212;-64
2022/03/05 12:38:19;;;;;;;7.50;6.68;;;2.80;99.90;;;;;;5067347;28;20194;-65
2022/03/05 12:40:50;;;;;;;9.18;6.45;;;2.80;99.90;;;;;;5064723;28;20257;-64
2022/03/05 12:43:20;;;;;;;8.30;7.38;;;2.80;99.90;;;;;;5071034;28;20227;-64
2022/03/05 12:45:51;;;;;;;9.90;7.28;;;2.80;99.90;;;;;;5069225;28;20202;-65
2022/03/05 12:48:24;;;;;;;8.82;6.85;;;2.80;99.90;;;;;;5069944;28;20538;-64
2022/03/05 12:50:56;;;;;;;8.50;7.50;;;2.70;99.90;;;;;;5069901;28;20219;-64
2022/03/05 12:53:31;;;;;;;7.55;6.45;;;2.70;99.90;;;;;;5079463;28;20205;-64
2022/03/05 12:56:03;;;;;;;9.35;8.30;;;2.70;99.90;;;;;;5068048;28;20205;-64
2022/03/05 12:58:35;;;;;;;8.40;7.32;;;2.70;99.90;;;;;;5071687;28;20202;-64
2022/03/05 13:01:08;;;;;;;10.15;9.13;;;2.80;99.90;;;;;;5065216;28;20224;-64
2022/03/05 13:03:41;;;;;;;12.35;9.20;;;2.80;99.90;;;;;;5063926;28;20520;-64
2022/03/05 13:06:13;;;;;;;14.15;9.10;;;2.80;99.90;;;;;;5064347;28;20286;-64
2022/03/05 13:08:44;;;;;;;16.50;9.98;;;2.80;99.90;;;;;;5056519;28;20208;-64
2022/03/05 13:11:16;;;;;;;39.60;12.25;;;2.80;99.90;;;;;;5064023;28;20194;-64
2022/03/05 13:13:47;;;;;;;67.30;12.73;;;2.90;99.90;;;;;;5061452;28;20198;-64
2022/03/05 13:16:23;;;;;;;28.73;10.18;;;2.80;99.90;;;;;;5072009;28;20316;-64
2022/03/05 13:18:58;;;;;;;29.23;9.88;;;2.90;99.90;;;;;;5065440;28;20297;-64
2022/03/05 13:21:31;;;;;;;61.22;11.48;;;2.80;99.90;;;;;;5063907;28;20268;-64
2022/03/05 13:24:06;;;;;;;38.85;10.20;;;2.80;99.90;;;;;;5063751;28;20205;-64
2022/03/05 13:26:37;;;;;;;16.08;7.80;;;2.70;99.90;;;;;;5063400;28;20210;-64